createdAt,value
2022-08-10T00:01:51.287Z,73.00
2022-08-10T00:04:21.157Z,73.20
2022-08-10T00:06:48.542Z,73.00
2022-08-10T00:09:15.195Z,73.10
2022-08-10T00:11:41.858Z,73.40
2022-08-10T00:14:08.522Z,74.20
2022-08-10T00:16:35.234Z,73.80
2022-08-10T00:19:01.939Z,73.80
2022-08-10T00:21:28.662Z,74.00
2022-08-10T00:23:55.360Z,73.60
2022-08-10T00:26:22.171Z,73.90
2022-08-10T00:28:49.315Z,74.20
2022-08-10T00:31:15.989Z,74.40
2022-08-10T00:33:42.899Z,74.30
2022-08-10T00:36:09.677Z,74.50
2022-08-10T00:38:37.570Z,74.50
2022-08-10T00:41:04.363Z,74.80
2022-08-10T00:47:50.364Z,74.80
2022-08-10T00:51:10.372Z,75.50
2022-08-10T00:53:37.080Z,75.80
2022-08-10T00:57:15.648Z,75.70
2022-08-10T00:58:52.971Z,75.70
2022-08-10T01:02:07.099Z,75.60
2022-08-10T01:04:39.541Z,75.70
2022-08-10T01:07:08.375Z,76.10
2022-08-10T01:09:43.682Z,76.40
2022-08-10T01:12:40.407Z,76.20
2022-08-10T01:15:26.513Z,76.60
2022-08-10T01:18:04.724Z,76.90
2022-08-10T01:20:46.237Z,77.30
2022-08-10T01:23:16.101Z,77.60
2022-08-10T01:26:11.694Z,77.60
2022-08-10T01:28:53.316Z,77.80
2022-08-10T01:31:21.550Z,77.80
2022-08-10T01:33:58.378Z,78.40
2022-08-10T01:36:32.058Z,78.10
2022-08-10T01:39:01.380Z,78.70
2022-08-10T01:41:45.856Z,78.90
2022-08-10T01:44:23.859Z,78.80
2022-08-10T01:46:57.136Z,78.80
2022-08-10T01:49:24.502Z,79.00
2022-08-10T01:51:52.832Z,79.30
2022-08-10T01:54:22.925Z,79.60
2022-08-10T01:56:52.326Z,79.50
2022-08-10T01:59:22.065Z,79.90
2022-08-10T02:01:53.165Z,79.90
2022-08-10T02:04:20.839Z,80.40
2022-08-10T02:06:49.638Z,80.30
2022-08-10T02:09:26.504Z,80.80
2022-08-10T02:12:07.645Z,80.30
2022-08-10T02:14:43.053Z,80.70
2022-08-10T02:17:59.838Z,80.60
2022-08-10T02:20:02.055Z,81.20
2022-08-10T02:22:38.338Z,81.50
2022-08-10T02:25:07.964Z,81.70
2022-08-10T02:27:34.983Z,81.80
2022-08-10T02:30:06.958Z,81.80
2022-08-10T02:32:38.563Z,81.50
2022-08-10T02:35:19.395Z,81.80
2022-08-10T02:37:55.028Z,82.20
2022-08-10T02:45:00.594Z,82.70
2022-08-10T02:45:27.197Z,82.90
2022-08-10T02:46:03.845Z,83.00
2022-08-10T02:48:45.866Z,83.40
2022-08-10T02:51:18.449Z,83.00
2022-08-10T02:53:56.176Z,83.50
2022-08-10T02:56:47.962Z,83.70
2022-08-10T02:59:18.128Z,83.50
2022-08-10T03:01:46.458Z,83.50
2022-08-10T03:04:20.909Z,84.20
2022-08-10T03:07:10.434Z,84.00
2022-08-10T03:09:41.824Z,84.20
2022-08-10T03:12:35.082Z,84.50
2022-08-10T03:15:00.046Z,84.70
2022-08-10T03:17:28.271Z,84.80
2022-08-10T03:20:33.994Z,85.20
2022-08-10T03:22:45.022Z,85.20
2022-08-10T03:25:12.708Z,85.00
2022-08-10T03:27:41.115Z,84.80
2022-08-10T03:30:28.234Z,85.30
2022-08-10T03:32:56.610Z,85.20
2022-08-10T03:35:24.107Z,85.60
2022-08-10T03:37:50.892Z,86.00
2022-08-10T03:40:45.551Z,85.60
2022-08-10T03:43:18.097Z,86.30
2022-08-10T03:45:55.390Z,86.50
2022-08-10T03:48:44.568Z,86.30
2022-08-10T03:51:14.829Z,86.90
2022-08-10T03:54:04.941Z,87.00
2022-08-10T03:56:31.830Z,86.90
2022-08-10T03:58:59.195Z,87.10
2022-08-10T04:02:41.816Z,86.90
2022-08-10T04:04:16.557Z,87.60
2022-08-10T04:06:51.464Z,87.60
2022-08-10T04:09:23.617Z,88.00
2022-08-10T04:11:52.940Z,88.30
2022-08-10T04:14:38.613Z,88.80
2022-08-10T04:17:13.780Z,89.10
2022-08-10T04:19:43.039Z,89.20
2022-08-10T04:22:23.263Z,89.20
2022-08-10T04:24:55.143Z,89.20
2022-08-10T04:27:21.859Z,88.80
2022-08-10T04:29:50.635Z,88.60
2022-08-10T04:32:23.910Z,88.80
2022-08-10T04:34:54.993Z,89.20
2022-08-10T04:37:22.100Z,89.00
2022-08-10T04:39:49.123Z,88.90
2022-08-10T04:42:16.594Z,89.10
2022-08-10T04:44:46.639Z,89.30
2022-08-10T04:47:13.532Z,89.60
2022-08-10T04:49:54.782Z,89.60
2022-08-10T04:52:23.389Z,89.90
2022-08-10T04:54:54.717Z,90.00
2022-08-10T04:57:21.407Z,90.00
2022-08-10T04:59:48.566Z,90.10
2022-08-10T05:02:31.569Z,90.10
2022-08-10T05:04:59.016Z,90.40
2022-08-10T05:07:25.725Z,90.50
2022-08-10T05:10:03.081Z,90.30
2022-08-10T05:12:35.923Z,90.30
2022-08-10T05:15:12.549Z,90.30
2022-08-10T05:17:40.129Z,90.30
2022-08-10T05:20:10.430Z,90.40
2022-08-10T05:22:38.656Z,90.60
2022-08-10T05:25:06.776Z,90.40
2022-08-10T05:27:33.949Z,90.10
2022-08-10T05:30:01.640Z,90.40
2022-08-10T05:32:30.063Z,90.30
2022-08-10T05:34:59.342Z,90.30
2022-08-10T05:38:10.114Z,90.30
2022-08-10T05:40:13.649Z,90.60
2022-08-10T05:42:41.154Z,90.30
2022-08-10T05:45:15.832Z,89.50
2022-08-10T05:48:54.254Z,90.00
2022-08-10T05:50:34.661Z,88.60
2022-08-10T05:53:06.521Z,87.70
2022-08-10T05:55:48.116Z,87.50
2022-08-10T05:58:17.151Z,86.90
2022-08-10T06:00:50.028Z,86.70
2022-08-10T06:03:18.571Z,86.00
2022-08-10T06:05:52.267Z,85.80
2022-08-10T06:08:24.130Z,86.50
2022-08-10T06:12:21.879Z,86.00
2022-08-10T06:14:15.739Z,86.70
2022-08-10T06:16:44.176Z,86.00
2022-08-10T06:19:15.109Z,85.60
2022-08-10T06:22:00.752Z,86.20
2022-08-10T06:24:30.526Z,85.40
2022-08-10T06:26:58.208Z,85.60
2022-08-10T06:29:25.125Z,84.60
2022-08-10T06:31:55.317Z,84.70
2022-08-10T06:34:27.059Z,83.40
2022-08-10T06:36:55.241Z,82.70
2022-08-10T06:39:33.486Z,82.60
2022-08-10T06:42:27.691Z,83.30
2022-08-10T06:45:03.547Z,82.50
2022-08-10T06:47:43.413Z,82.00
2022-08-10T06:50:44.500Z,81.50
2022-08-10T06:53:11.045Z,80.40
2022-08-10T06:55:45.468Z,80.20
2022-08-10T06:58:18.434Z,79.20
2022-08-10T07:00:51.564Z,79.50
2022-08-10T07:03:19.940Z,79.20
2022-08-10T07:05:51.199Z,78.50
2022-08-10T07:08:19.754Z,77.70
2022-08-10T07:10:47.451Z,77.70
2022-08-10T07:14:17.236Z,76.80
2022-08-10T07:16:09.812Z,76.90
2022-08-10T07:18:37.064Z,76.20
2022-08-10T07:21:04.201Z,75.70
2022-08-10T07:23:57.240Z,75.10
2022-08-10T07:26:19.209Z,74.80
2022-08-10T07:28:48.283Z,74.70
2022-08-10T07:31:36.150Z,74.60
2022-08-10T07:34:07.031Z,74.80
2022-08-10T07:36:35.593Z,73.30
2022-08-10T07:39:04.999Z,73.30
2022-08-10T07:41:33.109Z,72.80
2022-08-10T07:44:02.970Z,72.20
2022-08-10T07:46:30.988Z,72.30
2022-08-10T07:49:00.017Z,72.00
2022-08-10T07:51:27.222Z,72.40
2022-08-10T07:53:55.125Z,71.70
2022-08-10T07:56:47.512Z,72.30
2022-08-10T07:59:14.856Z,71.10
2022-08-10T08:01:48.454Z,71.40
2022-08-10T08:04:17.072Z,70.80
2022-08-10T08:06:44.442Z,71.00
2022-08-10T08:09:11.405Z,70.40
2022-08-10T08:11:39.725Z,70.80
2022-08-10T08:14:07.466Z,70.40
2022-08-10T08:16:35.413Z,70.00
2022-08-10T08:19:26.851Z,70.00
2022-08-10T08:24:07.956Z,70.00
2022-08-10T08:24:39.274Z,69.40
2022-08-10T08:27:06.135Z,70.20
2022-08-10T08:29:36.801Z,69.30
2022-08-10T08:32:04.864Z,69.10
2022-08-10T08:34:32.204Z,69.00
2022-08-10T08:37:00.735Z,68.80
2022-08-10T08:39:27.546Z,68.30
2022-08-10T08:42:13.198Z,67.60
2022-08-10T08:44:39.837Z,66.70
2022-08-10T08:48:02.144Z,67.10
2022-08-10T08:50:32.582Z,66.90
2022-08-10T08:53:21.162Z,66.90
2022-08-10T08:56:07.000Z,66.00
2022-08-10T08:58:52.945Z,66.10
2022-08-10T09:01:22.885Z,66.00
2022-08-10T09:04:00.313Z,65.80
2022-08-10T09:06:46.000Z,65.40
2022-08-10T09:09:21.055Z,65.40
2022-08-10T09:11:58.791Z,64.50
2022-08-10T09:14:38.180Z,64.00
2022-08-10T09:17:23.279Z,63.80
2022-08-10T09:19:55.162Z,63.10
2022-08-10T09:22:41.718Z,62.00
2022-08-10T09:25:26.217Z,62.00
2022-08-10T09:28:06.663Z,61.10
2022-08-10T09:31:18.824Z,61.80
2022-08-10T09:36:24.757Z,61.10
2022-08-10T09:36:59.606Z,60.90
2022-08-10T09:40:56.231Z,60.90
2022-08-10T09:42:23.435Z,60.10
2022-08-10T09:44:58.525Z,60.50
2022-08-10T09:48:02.484Z,59.70
2022-08-10T09:50:21.603Z,59.70
2022-08-10T09:52:58.487Z,59.10
2022-08-10T09:56:19.336Z,59.00
2022-08-10T09:58:18.790Z,58.70
2022-08-10T10:00:47.370Z,59.30
2022-08-10T10:03:17.794Z,59.00
2022-08-10T10:06:04.608Z,58.90
2022-08-10T10:08:46.717Z,58.80
2022-08-10T10:11:22.664Z,58.60
2022-08-10T10:14:02.409Z,58.90
2022-08-10T10:16:53.450Z,58.30
2022-08-10T10:19:27.317Z,58.70
2022-08-10T10:22:04.341Z,57.10
2022-08-10T10:24:46.139Z,56.30
2022-08-10T10:27:36.571Z,56.40
2022-08-10T10:30:09.562Z,56.60
2022-08-10T10:32:41.496Z,55.80
2022-08-10T10:35:29.254Z,55.60
2022-08-10T10:38:01.248Z,56.00
2022-08-10T10:40:34.108Z,54.80
2022-08-10T10:43:04.542Z,54.80
2022-08-10T10:45:50.210Z,54.40
2022-08-10T10:48:24.032Z,54.30
2022-08-10T10:51:10.816Z,53.50
2022-08-10T10:53:47.155Z,53.50
2022-08-10T10:56:22.951Z,52.40
2022-08-10T10:58:58.542Z,52.90
2022-08-10T11:01:45.690Z,52.50
2022-08-10T11:04:23.061Z,52.40
2022-08-10T11:07:05.295Z,51.80
2022-08-10T11:10:05.527Z,52.00
2022-08-10T11:12:51.089Z,51.90
2022-08-10T11:15:21.706Z,52.10
2022-08-10T11:17:50.678Z,51.20
2022-08-10T11:20:33.133Z,51.20
2022-08-10T11:23:03.929Z,51.30
2022-08-10T11:25:32.379Z,51.20
2022-08-10T11:28:11.211Z,51.40
2022-08-10T11:30:45.832Z,51.50
2022-08-10T11:33:32.414Z,50.80
2022-08-10T11:36:01.918Z,51.30
2022-08-10T11:38:57.698Z,50.70
2022-08-10T11:42:08.922Z,50.20
2022-08-10T11:44:15.353Z,50.20
2022-08-10T11:46:53.467Z,50.30
2022-08-10T11:49:30.919Z,50.60
2022-08-10T11:52:05.021Z,50.40
2022-08-10T11:54:43.607Z,50.30
2022-08-10T11:57:11.614Z,50.00
2022-08-10T11:59:58.993Z,50.00
2022-08-10T12:02:30.716Z,50.50
2022-08-10T12:05:07.431Z,49.40
2022-08-10T12:10:02.211Z,49.60
2022-08-10T12:10:23.386Z,49.00
2022-08-10T12:12:55.239Z,49.50
2022-08-10T12:15:33.882Z,49.30
2022-08-10T12:18:03.399Z,49.30
2022-08-10T12:20:32.908Z,50.20
2022-08-10T12:23:17.017Z,49.10
2022-08-10T12:25:58.005Z,49.60
2022-08-10T12:28:50.785Z,47.70
2022-08-10T12:31:21.301Z,48.10
2022-08-10T12:34:08.294Z,48.20
2022-08-10T12:36:39.826Z,48.30
2022-08-10T12:39:19.793Z,48.10
2022-08-10T12:41:52.903Z,48.60
2022-08-10T12:44:42.345Z,48.00
2022-08-10T12:47:14.298Z,48.20
2022-08-10T12:50:30.877Z,47.70
2022-08-10T12:53:06.751Z,47.70
2022-08-10T12:55:34.730Z,48.10
2022-08-10T12:58:05.540Z,47.20
2022-08-10T13:01:14.543Z,46.60
2022-08-10T13:04:20.582Z,46.30
2022-08-10T13:06:26.620Z,46.60
2022-08-10T13:09:08.957Z,46.90
2022-08-10T13:12:37.411Z,47.20
2022-08-10T13:14:36.701Z,47.10
2022-08-10T13:17:04.746Z,47.40
2022-08-10T13:19:37.604Z,47.50
2022-08-10T13:22:22.238Z,47.10
2022-08-10T13:24:55.654Z,47.50
2022-08-10T13:28:01.291Z,47.80
2022-08-10T13:30:13.682Z,47.00
2022-08-10T13:32:46.929Z,46.80
2022-08-10T13:35:14.830Z,47.40
2022-08-10T13:37:46.728Z,46.50
2022-08-10T13:40:15.487Z,46.70
2022-08-10T13:42:44.283Z,46.50
2022-08-10T13:45:13.675Z,46.40
2022-08-10T13:47:48.818Z,46.00
2022-08-10T13:50:35.494Z,46.20
2022-08-10T13:53:14.456Z,45.70
2022-08-10T13:55:55.194Z,45.40
2022-08-10T13:58:32.531Z,45.60
2022-08-10T14:01:00.623Z,46.10
2022-08-10T14:03:28.137Z,45.90
2022-08-10T14:05:56.651Z,45.70
2022-08-10T14:08:25.432Z,45.60
2022-08-10T14:11:09.321Z,45.40
2022-08-10T14:13:43.693Z,45.30
2022-08-10T14:16:11.810Z,45.30
2022-08-10T14:18:39.803Z,45.50
2022-08-10T14:21:06.821Z,45.30
2022-08-10T14:23:38.804Z,45.20
2022-08-10T14:26:08.961Z,45.80
2022-08-10T14:28:40.384Z,45.40
2022-08-10T14:31:08.806Z,45.50
2022-08-10T14:33:36.978Z,45.20
2022-08-10T14:36:20.366Z,45.10
2022-08-10T14:38:53.844Z,44.80
2022-08-10T14:42:01.491Z,44.80
2022-08-10T14:44:18.379Z,44.40
2022-08-10T14:46:46.197Z,45.00
2022-08-10T14:49:25.788Z,44.70
2022-08-10T14:51:58.575Z,45.30
2022-08-10T14:54:29.797Z,45.10
2022-08-10T14:57:11.360Z,45.30
2022-08-10T15:00:25.210Z,45.90
2022-08-10T15:02:40.062Z,45.80
2022-08-10T15:05:15.891Z,44.80
2022-08-10T15:07:45.759Z,45.00
2022-08-10T15:10:18.522Z,44.40
2022-08-10T15:12:55.165Z,44.80
2022-08-10T15:15:28.833Z,45.20
2022-08-10T15:17:57.775Z,45.20
2022-08-10T15:20:25.466Z,45.50
2022-08-10T15:23:05.299Z,45.30
2022-08-10T15:25:36.540Z,45.60
2022-08-10T15:28:08.154Z,45.70
2022-08-10T15:30:40.380Z,45.70
2022-08-10T15:34:03.012Z,45.80
2022-08-10T15:36:37.109Z,46.00
2022-08-10T15:39:16.745Z,46.50
2022-08-10T15:42:00.363Z,47.10
2022-08-10T15:44:38.571Z,48.30
2022-08-10T15:47:15.277Z,48.60
2022-08-10T15:49:47.767Z,49.00
2022-08-10T15:53:00.005Z,49.20
2022-08-10T15:55:42.852Z,49.60
2022-08-10T15:58:10.435Z,49.80
2022-08-10T16:00:39.712Z,50.70
2022-08-10T16:03:29.827Z,49.70
2022-08-10T16:06:01.913Z,50.30
2022-08-10T16:08:35.986Z,50.10
2022-08-10T16:11:24.990Z,50.50
2022-08-10T16:14:01.317Z,50.70
2022-08-10T16:16:34.407Z,50.70
2022-08-10T16:19:02.708Z,50.50
2022-08-10T16:21:39.352Z,50.60
2022-08-10T16:24:15.198Z,50.50
2022-08-10T16:26:50.350Z,50.60
2022-08-10T16:29:18.289Z,50.80
2022-08-10T16:31:55.838Z,50.60
2022-08-10T16:34:23.077Z,51.00
2022-08-10T16:36:52.138Z,51.20
2022-08-10T16:39:59.687Z,51.10
2022-08-10T16:42:18.975Z,51.10
2022-08-10T16:45:01.197Z,50.80
2022-08-10T16:47:28.885Z,50.70
2022-08-10T16:49:58.031Z,50.60
2022-08-10T16:52:26.161Z,50.50
2022-08-10T16:55:23.771Z,50.80
2022-08-10T16:57:59.212Z,50.80
2022-08-10T17:00:26.437Z,50.70
2022-08-10T17:02:54.837Z,50.70
2022-08-10T17:06:03.402Z,50.40
2022-08-10T17:08:13.330Z,50.60
2022-08-10T17:10:40.938Z,50.80
2022-08-10T17:13:09.425Z,50.70
2022-08-10T17:15:39.093Z,50.70
2022-08-10T17:18:07.380Z,50.80
2022-08-10T17:20:38.270Z,50.70
2022-08-10T17:23:07.703Z,50.70
2022-08-10T17:25:48.220Z,51.00
2022-08-10T17:28:35.305Z,50.90
2022-08-10T17:31:24.071Z,50.70
2022-08-10T17:34:14.754Z,50.60
2022-08-10T17:36:42.144Z,50.70
2022-08-10T17:39:11.093Z,50.80
2022-08-10T17:41:38.717Z,50.60
2022-08-10T17:44:06.342Z,50.60
2022-08-10T17:46:38.633Z,50.80
2022-08-10T17:49:06.934Z,51.60
2022-08-10T17:51:34.102Z,51.40
2022-08-10T17:54:01.839Z,51.60
2022-08-10T17:56:31.431Z,52.30
2022-08-10T17:59:00.343Z,51.50
2022-08-10T18:01:40.979Z,51.20
2022-08-10T18:04:17.909Z,52.00
2022-08-10T18:06:51.050Z,51.10
2022-08-10T18:09:24.217Z,52.00
2022-08-10T18:11:56.167Z,51.30
2022-08-10T18:14:23.779Z,51.50
2022-08-10T18:16:54.457Z,51.50
2022-08-10T18:19:21.493Z,52.10
2022-08-10T18:21:49.392Z,52.60
2022-08-10T18:24:17.969Z,52.80
2022-08-10T18:26:46.104Z,52.80
2022-08-10T18:29:13.822Z,53.50
2022-08-10T18:31:46.579Z,53.90
2022-08-10T18:34:17.400Z,54.30
2022-08-10T18:36:46.529Z,53.40
2022-08-10T18:39:14.673Z,53.60
2022-08-10T18:42:05.025Z,54.00
2022-08-10T18:44:34.816Z,54.70
2022-08-10T18:47:02.745Z,54.30
2022-08-10T18:49:39.917Z,54.40
2022-08-10T18:52:11.420Z,55.10
2022-08-10T18:54:47.011Z,55.10
2022-08-10T18:57:32.637Z,54.80
2022-08-10T19:00:07.944Z,54.60
2022-08-10T19:02:39.738Z,54.20
2022-08-10T19:05:30.180Z,55.40
2022-08-10T19:08:30.681Z,54.80
2022-08-10T19:11:10.515Z,54.40
2022-08-10T19:13:56.102Z,54.80
2022-08-10T19:16:35.602Z,54.50
2022-08-10T19:19:22.683Z,55.00
2022-08-10T19:22:09.942Z,55.10
2022-08-10T19:24:36.660Z,55.50
2022-08-10T19:27:09.418Z,54.50
2022-08-10T19:30:32.775Z,54.80
2022-08-10T19:33:05.525Z,54.80
2022-08-10T19:36:03.735Z,55.30
2022-08-10T19:38:51.286Z,54.50
2022-08-10T19:41:21.176Z,55.10
2022-08-10T19:44:02.372Z,56.20
2022-08-10T19:46:49.119Z,56.00
2022-08-10T19:49:28.173Z,56.10
2022-08-10T19:52:24.434Z,56.30
2022-08-10T19:55:03.132Z,56.70
2022-08-10T19:57:48.693Z,57.20
2022-08-10T20:00:22.862Z,57.10
2022-08-10T20:02:59.474Z,57.20
2022-08-10T20:05:32.194Z,57.40
2022-08-10T20:07:58.819Z,57.40
2022-08-10T20:10:33.542Z,57.30
2022-08-10T20:13:13.644Z,57.70
2022-08-10T20:15:54.194Z,57.90
2022-08-10T20:18:24.409Z,57.90
2022-08-10T20:21:00.466Z,58.10
2022-08-10T20:23:30.430Z,58.10
2022-08-10T20:26:14.269Z,58.30
2022-08-10T20:29:06.282Z,58.40
2022-08-10T20:31:37.981Z,59.10
2022-08-10T20:34:06.866Z,59.10
2022-08-10T20:36:42.027Z,59.60
2022-08-10T20:39:36.533Z,59.20
2022-08-10T20:42:18.490Z,59.70
2022-08-10T20:44:47.036Z,59.90
2022-08-10T20:47:20.466Z,60.00
2022-08-10T20:50:01.815Z,60.00
2022-08-10T20:52:29.213Z,60.40
2022-08-10T20:55:01.681Z,59.80
2022-08-10T20:57:55.962Z,60.90
2022-08-10T21:00:24.270Z,60.90
2022-08-10T21:02:59.201Z,61.30
2022-08-10T21:05:48.798Z,61.10
2022-08-10T21:08:35.699Z,61.20
2022-08-10T21:11:07.807Z,61.60
2022-08-10T21:13:53.349Z,61.90
2022-08-10T21:16:32.140Z,61.70
2022-08-10T21:19:07.794Z,62.40
2022-08-10T21:21:57.095Z,62.00
2022-08-10T21:24:29.684Z,62.20
2022-08-10T21:27:15.619Z,62.40
2022-08-10T21:30:08.510Z,63.20
2022-08-10T21:32:41.766Z,63.10
2022-08-10T21:35:15.508Z,62.90
2022-08-10T21:37:56.643Z,63.20
2022-08-10T21:40:42.605Z,63.60
2022-08-10T21:44:07.085Z,63.40
2022-08-10T21:47:11.615Z,63.40
2022-08-10T21:50:12.594Z,64.30
2022-08-10T21:53:04.256Z,64.30
2022-08-10T21:56:01.300Z,64.40
2022-08-10T21:58:52.504Z,64.10
2022-08-10T22:01:51.422Z,64.40
2022-08-10T22:04:38.115Z,64.50
2022-08-10T22:07:27.289Z,64.30
2022-08-10T22:10:13.824Z,64.60
2022-08-10T22:13:08.347Z,65.60
2022-08-10T22:16:10.839Z,65.30
2022-08-10T22:19:02.125Z,65.30
2022-08-10T22:22:04.803Z,65.80
2022-08-10T22:25:02.362Z,66.10
2022-08-10T22:27:52.585Z,66.00
2022-08-10T22:30:38.638Z,66.30
2022-08-10T22:33:40.890Z,66.20
2022-08-10T22:36:45.383Z,66.60
2022-08-10T22:40:10.828Z,66.20
2022-08-10T22:42:58.804Z,66.80
2022-08-10T22:45:54.951Z,66.70
2022-08-10T22:48:40.249Z,66.80
2022-08-10T22:51:20.598Z,67.10
2022-08-10T22:54:31.487Z,66.00
2022-08-10T22:57:18.576Z,66.20
2022-08-10T22:59:45.943Z,66.00
2022-08-10T23:02:16.360Z,66.40
2022-08-10T23:04:52.259Z,66.80
2022-08-10T23:07:33.263Z,66.60
2022-08-10T23:10:05.173Z,66.90
2022-08-10T23:12:41.091Z,67.40
2022-08-10T23:15:32.983Z,67.30
2022-08-10T23:18:22.592Z,67.70
2022-08-10T23:20:53.404Z,68.10
2022-08-10T23:23:23.666Z,67.90
2022-08-10T23:25:56.981Z,68.30
2022-08-10T23:28:39.096Z,67.80
2022-08-10T23:31:15.796Z,67.90
2022-08-10T23:33:44.600Z,67.70
2022-08-10T23:36:34.492Z,68.30
2022-08-10T23:39:25.465Z,68.20
2022-08-10T23:41:58.897Z,68.20
2022-08-10T23:44:32.399Z,68.20
2022-08-10T23:47:00.841Z,68.90
2022-08-10T23:49:32.341Z,68.50
2022-08-10T23:51:59.251Z,69.40
2022-08-10T23:54:26.370Z,69.20
2022-08-10T23:56:56.535Z,69.40
2022-08-10T23:59:31.707Z,69.70
